Last 24 Hours

UH Manoa Atmospheric Sciences

15 Minute Data | Pacific/Honolulu
as of 3/1/24 11:13 PM HST
Station Date Time Temp (°F) RH (%) Dew Pt (°F) Wind Spd (mph) Wind Dir (°) Wind Gust (mph) Latest Rain (In) Solar Rad (W/m2) Heat Index (°F) Barometric Press (inHg) Daily Rain (In) Daily Min Temp (°F) Daily Max Temp (°F) Daily Max Wind (mph)
UH Manoa Atmospheric Sciences 3/1/24 2300 73.8 72 64.2 8.1 ENE | 63 20.0 0.00 0 73.8 30.19 0.00 72.1 79.2 35.6
UH Manoa Atmospheric Sciences 3/1/24 2245 73.6 73 64.5 9.4 ENE | 64 15.1 0.00 0 73.6 30.19 0.00 72.1 79.2 35.6
UH Manoa Atmospheric Sciences 3/1/24 2230 73.5 75 65.1 8.1 ENE | 59 22.4 0.00 0 73.5 30.19 0.00 72.1 79.2 35.6
UH Manoa Atmospheric Sciences 3/1/24 2215 73.4 76 65.2 7.8 ENE | 64 16.8 0.00 0 73.4 30.19 0.00 72.1 79.2 35.6
UH Manoa Atmospheric Sciences 3/1/24 2200 73.8 75 65.3 9.4 ENE | 70 16.5 0.00 0 73.8 30.20 0.00 72.1 79.2 35.6
UH Manoa Atmospheric Sciences 3/1/24 2145 74.1 72 64.4 8.6 ENE | 62 17.0 0.00 0 74.1 30.19 0.00 72.1 79.2 35.6
UH Manoa Atmospheric Sciences 3/1/24 2130 73.7 73 64.4 8.4 ENE | 65 18.3 0.00 0 73.7 30.19 0.00 72.1 79.2 35.6
UH Manoa Atmospheric Sciences 3/1/24 2115 73.5 74 64.6 7.6 ENE | 65 14.4 0.00 0 73.5 30.19 0.00 72.1 79.2 35.6
UH Manoa Atmospheric Sciences 3/1/24 2100 73.5 75 65.0 8.6 ENE | 60 15.9 0.00 0 73.5 30.18 0.00 72.1 79.2 35.6
UH Manoa Atmospheric Sciences 3/1/24 2045 73.6 76 65.4 8.4 ENE | 66 16.0 0.00 0 73.6 30.18 0.00 72.1 79.2 35.6
UH Manoa Atmospheric Sciences 3/1/24 2030 73.6 76 65.4 7.4 ENE | 65 12.7 0.00 0 73.6 30.18 0.00 72.1 79.2 35.6
UH Manoa Atmospheric Sciences 3/1/24 2015 73.2 76 65.2 9.4 ENE | 68 17.0 0.00 0 73.2 30.17 0.00 72.1 79.2 35.6
UH Manoa Atmospheric Sciences 3/1/24 2000 72.8 77 65.4 8.7 ENE | 63 20.1 0.00 0 72.8 30.16 0.00 72.1 79.2 35.6
UH Manoa Atmospheric Sciences 3/1/24 1945 72.9 77 65.3 8.5 ENE | 58 16.3 0.00 0 72.9 30.16 0.00 72.1 79.2 35.6
UH Manoa Atmospheric Sciences 3/1/24 1930 73.1 76 65.3 8.1 ENE | 69 15.4 0.00 0 73.1 30.16 0.00 72.1 79.2 35.6
UH Manoa Atmospheric Sciences 3/1/24 1915 73.4 75 65.1 7.6 ENE | 61 13.6 0.00 0 73.4 30.17 0.00 72.1 79.2 35.6
UH Manoa Atmospheric Sciences 3/1/24 1900 74.2 72 64.6 5.7 ENE | 63 11.6 0.00 0 74.2 30.17 0.00 72.1 79.2 35.6
UH Manoa Atmospheric Sciences 3/1/24 1845 74.5 71 64.5 5.7 ENE | 60 12.4 0.00 1 74.5 30.16 0.00 72.1 79.2 35.6
UH Manoa Atmospheric Sciences 3/1/24 1830 74.7 71 64.6 6.1 ENE | 57 12.3 0.00 26 74.7 30.15 0.00 72.1 79.2 35.6
UH Manoa Atmospheric Sciences 3/1/24 1815 75.0 70 64.6 6.2 NE | 56 12.6 0.00 66 75.0 30.15 0.00 72.1 79.2 35.6
UH Manoa Atmospheric Sciences 3/1/24 1800 75.2 69 64.6 8.9 NE | 53 17.7 0.00 135 75.2 30.14 0.00 72.1 79.2 35.6
UH Manoa Atmospheric Sciences 3/1/24 1745 75.0 71 64.8 7.4 NE | 54 21.8 0.00 185 75.0 30.14 0.00 72.1 79.2 35.6
UH Manoa Atmospheric Sciences 3/1/24 1730 75.7 69 64.9 8.4 NE | 49 14.8 0.00 225 75.7 30.13 0.00 72.1 79.2 35.6
UH Manoa Atmospheric Sciences 3/1/24 1715 76.2 67 64.7 10.4 NE | 44 19.3 0.00 286 76.2 30.12 0.00 72.1 79.2 35.6
UH Manoa Atmospheric Sciences 3/1/24 1700 76.5 67 64.6 13.1 NE | 48 26.6 0.00 369 76.5 30.12 0.00 72.1 79.2 35.6
UH Manoa Atmospheric Sciences 3/1/24 1645 76.8 66 64.8 11.6 NE | 47 22.4 0.00 434 76.8 30.11 0.00 72.1 79.2 35.6
UH Manoa Atmospheric Sciences 3/1/24 1630 76.9 66 64.5 12.1 NE | 42 22.1 0.00 491 76.9 30.10 0.00 72.1 79.2 35.6
UH Manoa Atmospheric Sciences 3/1/24 1615 76.9 64 63.9 13.3 NE | 44 28.9 0.00 540 76.9 30.10 0.00 72.1 79.2 35.6
UH Manoa Atmospheric Sciences 3/1/24 1600 76.7 64 63.5 15.2 NE | 39 35.6 0.00 586 76.7 30.10 0.00 72.1 79.2 35.6
UH Manoa Atmospheric Sciences 3/1/24 1545 77.0 64 64.0 11.4 NE | 47 19.8 0.00 646 77.0 30.10 0.00 72.1 79.2 30.6
UH Manoa Atmospheric Sciences 3/1/24 1530 77.0 64 64.1 15.4 NE | 38 27.6 0.00 749 77.0 30.10 0.00 72.1 79.2 30.6
UH Manoa Atmospheric Sciences 3/1/24 1515 77.0 65 64.4 13.5 NE | 42 24.5 0.00 757 77.0 30.09 0.00 72.1 79.2 30.6
UH Manoa Atmospheric Sciences 3/1/24 1500 77.3 65 64.5 13.9 NE | 45 26.9 0.00 715 77.3 30.10 0.00 72.1 79.2 30.6
UH Manoa Atmospheric Sciences 3/1/24 1445 77.3 64 64.1 14.5 NE | 46 28.4 0.00 734 77.3 30.10 0.00 72.1 79.2 30.6
UH Manoa Atmospheric Sciences 3/1/24 1430 77.0 64 63.8 14.9 NE | 45 30.3 0.00 568 77.0 30.10 0.00 72.1 79.2 30.6
UH Manoa Atmospheric Sciences 3/1/24 1415 76.8 63 63.4 18.7 NE | 41 30.6 0.00 899 76.8 30.10 0.00 72.1 79.2 30.6
UH Manoa Atmospheric Sciences 3/1/24 1400 77.3 62 63.2 16.7 NE | 46 28.8 0.00 908 77.3 30.11 0.00 72.1 79.2 29.2
UH Manoa Atmospheric Sciences 3/1/24 1345 77.3 62 63.3 18.4 NE | 42 29.2 0.00 920 77.3 30.11 0.00 72.1 79.2 29.2
UH Manoa Atmospheric Sciences 3/1/24 1330 77.3 62 63.3 16.8 NE | 40 29.1 0.00 919 77.3 30.12 0.00 72.1 79.2 29.1
UH Manoa Atmospheric Sciences 3/1/24 1315 77.1 64 64.2 14.0 NE | 42 23.7 0.00 919 77.1 30.13 0.00 72.1 79.2 25.0
UH Manoa Atmospheric Sciences 3/1/24 1300 77.5 64 64.6 13.9 NE | 44 24.3 0.00 877 77.5 30.14 0.00 72.1 79.2 25.0
UH Manoa Atmospheric Sciences 3/1/24 1245 77.8 62 63.8 11.2 NE | 44 20.8 0.00 944 77.8 30.15 0.00 72.1 79.2 25.0
UH Manoa Atmospheric Sciences 3/1/24 1230 77.4 65 64.5 12.5 NE | 43 25.0 0.00 926 77.4 30.16 0.00 72.1 79.2 25.0
UH Manoa Atmospheric Sciences 3/1/24 1215 78.1 63 64.6 7.7 ENE | 58 16.4 0.00 932 78.1 30.16 0.00 72.1 79.2 23.5
UH Manoa Atmospheric Sciences 3/1/24 1200 78.6 61 64.2 7.2 ENE | 59 20.9 0.00 785 78.6 30.17 0.00 72.1 79.2 23.5
UH Manoa Atmospheric Sciences 3/1/24 1145 77.8 63 64.1 11.2 NE | 48 21.0 0.00 911 77.8 30.17 0.00 72.1 78.8 23.5
UH Manoa Atmospheric Sciences 3/1/24 1130 77.7 64 64.4 10.0 NE | 43 20.9 0.00 890 77.7 30.17 0.00 72.1 78.1 23.5
UH Manoa Atmospheric Sciences 3/1/24 1115 77.7 63 64.3 9.8 NE | 54 20.0 0.00 837 77.7 30.17 0.00 72.1 78.1 23.5
UH Manoa Atmospheric Sciences 3/1/24 1100 77.1 64 64.2 11.7 NE | 46 20.2 0.00 793 77.1 30.18 0.00 72.1 78.0 23.5
UH Manoa Atmospheric Sciences 3/1/24 1045 77.4 63 64.0 10.5 NE | 49 21.2 0.00 799 77.4 30.18 0.00 72.1 78.0 23.5
UH Manoa Atmospheric Sciences 3/1/24 1030 77.1 64 64.0 9.9 NE | 54 23.5 0.00 739 77.1 30.17 0.00 72.1 77.6 23.5
UH Manoa Atmospheric Sciences 3/1/24 1015 77.1 64 64.2 8.9 NE | 53 19.8 0.00 692 77.1 30.17 0.00 72.1 77.6 23.0
UH Manoa Atmospheric Sciences 3/1/24 1000 76.8 65 64.2 8.1 ENE | 60 13.2 0.00 646 76.8 30.17 0.00 72.1 77.5 23.0
UH Manoa Atmospheric Sciences 3/1/24 0945 76.2 66 64.0 8.7 NE | 53 16.5 0.00 613 76.2 30.17 0.00 72.1 76.6 23.0
UH Manoa Atmospheric Sciences 3/1/24 0930 76.0 67 64.1 7.7 ENE | 66 13.2 0.00 553 76.0 30.17 0.00 72.1 76.3 23.0
UH Manoa Atmospheric Sciences 3/1/24 0915 75.3 68 63.9 9.1 ENE | 58 16.8 0.00 466 75.3 30.17 0.00 72.1 75.8 23.0
UH Manoa Atmospheric Sciences 3/1/24 0900 74.8 68 63.5 8.0 ENE | 63 23.0 0.00 379 74.8 30.16 0.00 72.1 75.3 23.0
UH Manoa Atmospheric Sciences 3/1/24 0845 74.5 67 63.0 8.0 NE | 50 14.8 0.00 339 74.5 30.17 0.00 72.1 75.0 20.4
UH Manoa Atmospheric Sciences 3/1/24 0830 74.4 68 63.3 7.1 NE | 56 12.9 0.00 305 74.4 30.17 0.00 72.1 74.7 20.4
UH Manoa Atmospheric Sciences 3/1/24 0815 74.2 68 63.1 8.0 ENE | 64 20.4 0.00 252 74.2 30.17 0.00 72.1 74.7 20.4
UH Manoa Atmospheric Sciences 3/1/24 0800 73.6 70 63.1 9.1 ENE | 67 19.3 0.00 194 73.6 30.17 0.00 72.1 74.0 19.3
UH Manoa Atmospheric Sciences 3/1/24 0745 73.2 72 63.7 7.8 ENE | 60 15.6 0.00 123 73.2 30.17 0.00 72.1 73.6 18.6
UH Manoa Atmospheric Sciences 3/1/24 0730 72.8 73 63.7 6.3 ENE | 58 14.5 0.00 60 72.8 30.16 0.00 72.1 73.6 18.6
UH Manoa Atmospheric Sciences 3/1/24 0715 72.7 73 63.7 7.6 ENE | 70 17.2 0.00 13 72.7 30.16 0.00 72.1 73.6 18.6
UH Manoa Atmospheric Sciences 3/1/24 0700 72.7 73 63.8 8.3 ENE | 65 14.3 0.00 1 72.7 30.16 0.00 72.1 73.6 18.6
UH Manoa Atmospheric Sciences 3/1/24 0645 72.4 75 63.9 8.6 ENE | 65 15.4 0.00 0 72.4 30.16 0.00 72.1 73.6 18.6
UH Manoa Atmospheric Sciences 3/1/24 0630 72.4 75 64.2 6.5 ENE | 66 12.7 0.00 0 72.4 30.15 0.00 72.1 73.6 18.6
UH Manoa Atmospheric Sciences 3/1/24 0615 72.7 74 64.1 6.5 ENE | 62 15.4 0.00 0 72.7 30.15 0.00 72.4 73.6 18.6
UH Manoa Atmospheric Sciences 3/1/24 0600 72.7 75 64.4 9.2 ENE | 64 16.0 0.00 0 72.7 30.14 0.00 72.4 73.6 18.6
UH Manoa Atmospheric Sciences 3/1/24 0545 72.6 76 64.7 7.7 ENE | 69 16.0 0.00 0 72.6 30.14 0.00 72.4 73.6 18.6
UH Manoa Atmospheric Sciences 3/1/24 0530 72.8 76 64.8 5.7 ENE | 64 11.3 0.00 0 72.8 30.14 0.00 72.5 73.6 18.6
UH Manoa Atmospheric Sciences 3/1/24 0515 72.8 76 64.8 5.7 ENE | 71 11.5 0.00 0 72.8 30.14 0.00 72.5 73.6 18.6
UH Manoa Atmospheric Sciences 3/1/24 0500 72.7 75 64.6 6.0 ENE | 59 15.1 0.00 0 72.7 30.14 0.00 72.5 73.6 18.6
UH Manoa Atmospheric Sciences 3/1/24 0445 72.9 74 64.2 4.3 ENE | 57 12.1 0.00 0 72.9 30.13 0.00 72.5 73.6 18.6
UH Manoa Atmospheric Sciences 3/1/24 0430 73.3 72 64.0 6.5 ENE | 66 13.9 0.00 0 73.3 30.13 0.00 72.6 73.6 18.6
UH Manoa Atmospheric Sciences 3/1/24 0415 73.3 72 63.9 6.3 ENE | 62 17.4 0.00 0 73.3 30.14 0.00 72.6 73.6 18.6
UH Manoa Atmospheric Sciences 3/1/24 0400 73.3 72 63.9 6.1 ENE | 61 15.1 0.00 0 73.3 30.14 0.00 72.6 73.6 18.6
UH Manoa Atmospheric Sciences 3/1/24 0345 73.3 73 64.0 7.0 ENE | 65 15.6 0.00 0 73.3 30.14 0.00 72.6 73.6 18.6
UH Manoa Atmospheric Sciences 3/1/24 0330 73.1 74 64.3 5.6 ENE | 64 18.6 0.00 0 73.1 30.14 0.00 72.6 73.6 18.6
UH Manoa Atmospheric Sciences 3/1/24 0315 73.3 73 64.2 7.2 ENE | 71 11.9 0.00 0 73.3 30.14 0.00 72.6 73.6 14.5
UH Manoa Atmospheric Sciences 3/1/24 0300 73.0 74 64.2 6.2 ENE | 63 13.4 0.00 0 73.0 30.14 0.00 72.6 73.4 14.5
UH Manoa Atmospheric Sciences 3/1/24 0245 73.1 74 64.2 7.8 ENE | 66 12.8 0.00 0 73.1 30.14 0.00 72.6 73.4 14.5
UH Manoa Atmospheric Sciences 3/1/24 0230 72.9 74 64.2 6.7 ENE | 69 14.2 0.00 0 72.9 30.15 0.00 72.6 73.4 14.5
UH Manoa Atmospheric Sciences 3/1/24 0215 72.9 74 64.1 6.6 ENE | 66 13.0 0.00 0 72.9 30.15 0.00 72.6 73.4 14.5
UH Manoa Atmospheric Sciences 3/1/24 0200 73.1 73 64.1 6.5 ENE | 68 13.2 0.00 0 73.1 30.16 0.00 72.6 73.4 14.5
UH Manoa Atmospheric Sciences 3/1/24 0145 72.9 74 64.2 6.9 ENE | 66 11.8 0.00 0 72.9 30.17 0.00 72.6 73.4 14.5
UH Manoa Atmospheric Sciences 3/1/24 0130 73.0 74 64.4 7.1 ENE | 64 14.3 0.00 0 73.0 30.17 0.00 72.8 73.4 14.5
UH Manoa Atmospheric Sciences 3/1/24 0115 73.2 72 63.7 6.9 ENE | 65 13.4 0.00 0 73.2 30.17 0.00 72.8 73.4 14.5
UH Manoa Atmospheric Sciences 3/1/24 0100 73.1 72 63.5 7.6 ENE | 66 14.5 0.00 0 73.1 30.17 0.00 72.8 73.4 14.5
UH Manoa Atmospheric Sciences 3/1/24 0045 73.0 73 63.9 7.4 ENE | 71 13.2 0.00 0 73.0 30.17 0.00 72.8 73.3 13.3
UH Manoa Atmospheric Sciences 3/1/24 0030 72.9 73 63.9 7.7 ENE | 62 12.7 0.00 0 72.9 30.17 0.00 72.8 73.3 13.3
UH Manoa Atmospheric Sciences 3/1/24 0015 73.0 73 64.0 7.0 ENE | 62 13.3 0.00 0 73.0 30.17 0.00 72.9 73.3 13.3
UH Manoa Atmospheric Sciences 3/1/24 0000 73.1 73 63.7 6.5 ENE | 64 11.6 0.00 0 73.1 30.18 0.08 68.9 78.4 27.4
UH Manoa Atmospheric Sciences 2/29/24 2345 72.9 74 64.1 6.7 ENE | 67 15.0 0.00 0 72.9 30.18 0.08 68.9 78.4 27.4
UH Manoa Atmospheric Sciences 2/29/24 2330 72.7 75 64.5 5.8 ENE | 61 12.7 0.00 0 72.7 30.18 0.08 68.9 78.4 27.4
UH Manoa Atmospheric Sciences 2/29/24 2315 73.0 74 64.4 6.4 ENE | 62 13.8 0.00 0 73.0 30.18 0.08 68.9 78.4 27.4
UH Manoa Atmospheric Sciences 2/29/24 2300 73.6 72 64.1 6.8 ENE | 70 16.7 0.00 0 73.6 30.18 0.08 68.9 78.4 27.4
Max     78.6 77 65.4 18.7 - 35.6 0.00 944 78.6 30.20 0.08 72.9 79.2 35.6
Avg     74.7 70 64.2 9.0 - 17.9 0.00 270 74.7 30.15 - - - -
Min     72.4 61 63.0 4.3 - 11.3 0.00 0 72.4 30.09 0.00 68.9 73.3 13.3